Wetterstation Vordersexau
Wetterdaten: Woche 12.11.18 - 18.11.18 (KW46)
Datum Zeit Temp. A. Feuchte A. Luftdruck Regen Wind Richtung Taupunkt Windchill Windben
12.11.2018 00:00 10,0 C 85 % 1012,6 hPa 0,0 l/m 0,0 km/h NO 7,6 C 10,0 C 0,0 km/h
12.11.2018 01:00 10,3 C 84 % 1012,7 hPa 0,0 l/m 5,2 km/h O-SO 7,7 C 10,3 C 2,9 km/h
12.11.2018 02:00 9,9 C 85 % 1012,2 hPa 0,0 l/m 0,0 km/h O 7,5 C 9,9 C 0,0 km/h
12.11.2018 03:00 9,9 C 85 % 1011,8 hPa 0,0 l/m 0,0 km/h O-NO 7,5 C 9,9 C 0,0 km/h
12.11.2018 04:00 9,1 C 84 % 1011,7 hPa 0,0 l/m 0,0 km/h O-NO 6,5 C 9,1 C 0,0 km/h
12.11.2018 05:00 7,6 C 84 % 1012,3 hPa 0,0 l/m 0,0 km/h O-NO 5,1 C 7,6 C 0,0 km/h
12.11.2018 06:00 7,0 C 83 % 1012,1 hPa 0,0 l/m 0,0 km/h O-NO 4,3 C 7,0 C 0,0 km/h
12.11.2018 07:00 6,4 C 82 % 1013,2 hPa 0,0 l/m 0,0 km/h NO 3,6 C 6,4 C 0,0 km/h
12.11.2018 08:00 7,6 C 78 % 1013,5 hPa 0,0 l/m 0,0 km/h SO 4,0 C 7,6 C 0,0 km/h
12.11.2018 09:00 10,8 C 79 % 1013,5 hPa 0,0 l/m 0,0 km/h W-SW 7,3 C 10,8 C 0,0 km/h
12.11.2018 10:00 13,1 C 84 % 1014,0 hPa 0,0 l/m 0,0 km/h W 10,5 C 13,1 C 0,0 km/h
12.11.2018 11:00 14,8 C 82 % 1014,2 hPa 0,0 l/m 0,0 km/h SW 11,8 C 14,8 C 0,0 km/h
12.11.2018 12:00 14,7 C 81 % 1014,2 hPa 0,0 l/m 0,0 km/h W-SW 11,5 C 14,7 C 0,0 km/h
12.11.2018 13:00 17,2 C 78 % 1014,7 hPa 0,0 l/m 0,0 km/h SW 13,3 C 17,2 C 0,0 km/h
12.11.2018 14:00 18,8 C 69 % 1014,8 hPa 0,0 l/m 19,4 km/h SW 13,0 C 14,8 C 10,8 km/h
12.11.2018 15:00 18,9 C 63 % 1015,0 hPa 0,0 l/m 9,7 km/h S-SW 11,7 C 17,5 C 5,4 km/h
12.11.2018 16:00 19,0 C 62 % 1015,3 hPa 0,0 l/m 15,6 km/h S-SO 11,6 C 15,9 C 8,6 km/h
12.11.2018 17:00 17,6 C 66 % 1015,8 hPa 0,0 l/m 11,0 km/h S-SO 11,2 C 15,6 C 6,1 km/h
12.11.2018 18:00 17,2 C 66 % 1016,3 hPa 0,0 l/m 4,5 km/h S-SO 10,8 C 17,2 C 2,5 km/h
12.11.2018 19:00 16,9 C 66 % 1016,4 hPa 0,0 l/m 0,0 km/h S-SO 10,5 C 16,9 C 0,0 km/h
12.11.2018 20:00 16,9 C 66 % 1016,7 hPa 0,0 l/m 0,0 km/h NO 10,5 C 16,9 C 0,0 km/h
12.11.2018 21:00 14,4 C 74 % 1016,7 hPa 0,0 l/m 0,0 km/h NO 9,8 C 14,4 C 0,0 km/h
12.11.2018 22:00 13,8 C 79 % 1017,0 hPa 0,0 l/m 0,0 km/h NO 10,2 C 13,8 C 0,0 km/h
12.11.2018 23:00 13,5 C 81 % 1017,5 hPa 0,0 l/m 0,0 km/h S 10,3 C 13,5 C 0,0 km/h
13.11.2018 00:00 13,9 C 81 % 1018,2 hPa 0,0 l/m 0,0 km/h S-SO 10,7 C 13,9 C 0,0 km/h
13.11.2018 01:00 13,1 C 83 % 1018,5 hPa 0,0 l/m 0,0 km/h NO 10,3 C 13,1 C 0,0 km/h
13.11.2018 02:00 12,9 C 83 % 1019,0 hPa 0,0 l/m 0,0 km/h S 10,1 C 12,9 C 0,0 km/h
13.11.2018 03:00 14,9 C 81 % 1019,0 hPa 0,0 l/m 22,7 km/h N 11,7 C 9,0 C 12,6 km/h
13.11.2018 04:00 12,6 C 83 % 1020,4 hPa 0,5 l/m 0,0 km/h W-NW 9,8 C 12,6 C 0,0 km/h
13.11.2018 05:00 12,2 C 84 % 1020,6 hPa 0,0 l/m 0,0 km/h W-NW 9,6 C 12,2 C 0,0 km/h
13.11.2018 06:00 11,8 C 83 % 1022,4 hPa 0,0 l/m 0,0 km/h W-NW 9,0 C 11,8 C 0,0 km/h
13.11.2018 07:00 11,1 C 84 % 1024,3 hPa 1,6 l/m 0,0 km/h S-SW 8,5 C 11,1 C 0,0 km/h
13.11.2018 08:00 10,3 C 83 % 1025,2 hPa 1,6 l/m 0,0 km/h S-SO 7,5 C 10,3 C 0,0 km/h
13.11.2018 09:00 10,3 C 82 % 1025,0 hPa 0,0 l/m 24,0 km/h SO 7,4 C 2,5 C 13,3 km/h
13.11.2018 10:00 10,9 C 84 % 1025,6 hPa 0,5 l/m 0,0 km/h N-NO 8,3 C 10,9 C 0,0 km/h
13.11.2018 11:00 11,2 C 84 % 1026,0 hPa 0,0 l/m 0,0 km/h S-SW 8,6 C 11,2 C 0,0 km/h
13.11.2018 12:00 11,3 C 83 % 1026,1 hPa 0,0 l/m 0,0 km/h S-SW 8,5 C 11,3 C 0,0 km/h
13.11.2018 13:00 11,9 C 84 % 1026,1 hPa 0,0 l/m 0,0 km/h SW 9,3 C 11,9 C 0,0 km/h
13.11.2018 14:00 12,9 C 83 % 1026,5 hPa 0,0 l/m 9,1 km/h W-SW 10,1 C 11,3 C 5,0 km/h
13.11.2018 15:00 13,4 C 76 % 1026,9 hPa 0,0 l/m 12,3 km/h S-SW 9,3 C 10,3 C 6,8 km/h
13.11.2018 16:00 12,5 C 77 % 1027,3 hPa 0,0 l/m 0,0 km/h S-SW 8,6 C 12,5 C 0,0 km/h
13.11.2018 17:00 9,5 C 84 % 1027,8 hPa 0,0 l/m 0,0 km/h SO 6,9 C 9,5 C 0,0 km/h
13.11.2018 18:00 8,4 C 84 % 1028,3 hPa 0,0 l/m 0,0 km/h NO 5,9 C 8,4 C 0,0 km/h
13.11.2018 19:00 7,5 C 84 % 1028,2 hPa 0,0 l/m 0,0 km/h O-SO 5,0 C 7,5 C 0,0 km/h
13.11.2018 20:00 7,0 C 84 % 1028,1 hPa 0,0 l/m 0,0 km/h SO 4,5 C 7,0 C 0,0 km/h
13.11.2018 21:00 6,4 C 83 % 1028,3 hPa 0,0 l/m 0,0 km/h O-SO 3,7 C 6,4 C 0,0 km/h
13.11.2018 22:00 5,9 C 83 % 1028,3 hPa 0,0 l/m 0,0 km/h SO 3,2 C 5,9 C 0,0 km/h
13.11.2018 23:00 5,5 C 83 % 1028,3 hPa 0,0 l/m 0,0 km/h SO 2,8 C 5,5 C 0,0 km/h
14.11.2018 00:00 5,2 C 83 % 1028,0 hPa 0,0 l/m 13,6 km/h SO 2,6 C 0,1 C 7,6 km/h
14.11.2018 01:00 4,6 C 84 % 1027,9 hPa 0,0 l/m 0,0 km/h O-NO 2,1 C 4,6 C 0,0 km/h
14.11.2018 02:00 3,9 C 83 % 1027,6 hPa 0,0 l/m 0,0 km/h O-NO 1,3 C 3,9 C 0,0 km/h
14.11.2018 03:00 3,2 C 83 % 1027,3 hPa 0,0 l/m 0,0 km/h O 0,6 C 3,2 C 0,0 km/h
14.11.2018 04:00 2,9 C 82 % 1027,2 hPa 0,0 l/m 0,0 km/h O-NO 0,1 C 2,9 C 0,0 km/h
14.11.2018 05:00 2,7 C 81 % 1026,9 hPa 0,0 l/m 0,0 km/h O-NO -0,2 C 2,7 C 0,0 km/h
14.11.2018 06:00 2,1 C 81 % 1026,9 hPa 0,0 l/m 0,0 km/h O-NO -0,8 C 2,1 C 0,0 km/h
14.11.2018 07:00 2,8 C 80 % 1027,0 hPa 0,0 l/m 0,0 km/h O-NO -0,3 C 2,8 C 0,0 km/h
14.11.2018 08:00 3,8 C 78 % 1026,8 hPa 0,0 l/m 0,0 km/h O-NO 0,3 C 3,8 C 0,0 km/h
14.11.2018 09:00 4,9 C 75 % 1026,4 hPa 0,0 l/m 0,0 km/h SW 0,8 C 4,9 C 0,0 km/h
14.11.2018 10:00 5,2 C 77 % 1026,4 hPa 0,0 l/m 0,0 km/h SW 1,5 C 5,2 C 0,0 km/h
14.11.2018 11:00 5,8 C 79 % 1025,7 hPa 0,0 l/m 0,0 km/h W 2,4 C 5,8 C 0,0 km/h
14.11.2018 12:00 6,3 C 80 % 1025,3 hPa 0,0 l/m 0,0 km/h W 3,1 C 6,3 C 0,0 km/h
14.11.2018 13:00 7,0 C 80 % 1025,0 hPa 0,0 l/m 0,0 km/h W-NW 3,8 C 7,0 C 0,0 km/h
14.11.2018 14:00 6,8 C 82 % 1024,6 hPa 0,0 l/m 0,0 km/h NW 3,9 C 6,8 C 0,0 km/h
14.11.2018 15:00 6,1 C 82 % 1025,0 hPa 0,0 l/m 0,0 km/h NW 3,3 C 6,1 C 0,0 km/h
14.11.2018 16:00 5,8 C 81 % 1024,8 hPa 0,0 l/m 0,0 km/h NW 2,8 C 5,8 C 0,0 km/h
14.11.2018 17:00 5,5 C 79 % 1024,9 hPa 0,0 l/m 0,0 km/h NW 2,2 C 5,5 C 0,0 km/h
14.11.2018 18:00 5,3 C 79 % 1024,7 hPa 0,0 l/m 0,0 km/h NW 2,0 C 5,3 C 0,0 km/h
14.11.2018 19:00 5,1 C 78 % 1024,6 hPa 0,0 l/m 0,0 km/h NW 1,6 C 5,1 C 0,0 km/h
14.11.2018 20:00 4,8 C 77 % 1024,7 hPa 0,0 l/m 0,0 km/h NW 1,1 C 4,8 C 0,0 km/h
14.11.2018 21:00 4,6 C 76 % 1024,7 hPa 0,0 l/m 0,0 km/h NW 0,7 C 4,6 C 0,0 km/h
14.11.2018 22:00 4,3 C 76 % 1024,6 hPa 0,0 l/m 0,0 km/h NW 0,5 C 4,3 C 0,0 km/h
14.11.2018 23:00 4,1 C 75 % 1024,4 hPa 0,0 l/m 0,0 km/h NW 0,1 C 4,1 C 0,0 km/h
15.11.2018 00:00 4,2 C 74 % 1024,0 hPa 0,0 l/m 0,0 km/h O -0,0 C 4,2 C 0,0 km/h
15.11.2018 01:00 4,3 C 70 % 1024,0 hPa 0,5 l/m 0,0 km/h O-SO -0,7 C 4,3 C 0,0 km/h
15.11.2018 02:00 4,4 C 69 % 1024,0 hPa 0,0 l/m 0,0 km/h O-SO -0,8 C 4,4 C 0,0 km/h
15.11.2018 03:00 4,6 C 68 % 1023,9 hPa 0,0 l/m 0,0 km/h SO -0,8 C 4,6 C 0,0 km/h
15.11.2018 04:00 4,5 C 67 % 1024,0 hPa 0,0 l/m 0,6 km/h O-SO -1,1 C 4,5 C 0,4 km/h
15.11.2018 05:00 4,4 C 67 % 1023,8 hPa 0,0 l/m 0,0 km/h SO -1,2 C 4,4 C 0,0 km/h
15.11.2018 06:00 4,3 C 69 % 1023,9 hPa 0,0 l/m 1,9 km/h O-SO -0,9 C 4,3 C 1,1 km/h
15.11.2018 07:00 4,1 C 69 % 1024,1 hPa 0,0 l/m 0,0 km/h O-SO -1,1 C 4,1 C 0,0 km/h
15.11.2018 08:00 4,4 C 69 % 1024,1 hPa 0,0 l/m 0,0 km/h O-SO -0,8 C 4,4 C 0,0 km/h
15.11.2018 09:00 4,6 C 68 % 1024,0 hPa 0,0 l/m 0,0 km/h SO -0,8 C 4,6 C 0,0 km/h
15.11.2018 10:00 4,9 C 69 % 1024,1 hPa 0,0 l/m 20,7 km/h SO -0,3 C -3,6 C 11,5 km/h
15.11.2018 11:00 5,3 C 72 % 1023,8 hPa 0,0 l/m 0,0 km/h SO 0,7 C 5,3 C 0,0 km/h
15.11.2018 12:00 5,7 C 77 % 1023,1 hPa 0,0 l/m 13,6 km/h SO 2,0 C 0,7 C 7,6 km/h
15.11.2018 13:00 5,9 C 81 % 1022,9 hPa 0,0 l/m 2,6 km/h SO 2,9 C 5,9 C 1,4 km/h
15.11.2018 14:00 6,2 C 81 % 1023,2 hPa 0,0 l/m 0,0 km/h S-SO 3,2 C 6,2 C 0,0 km/h
15.11.2018 15:00 5,9 C 81 % 1023,2 hPa 0,0 l/m 0,0 km/h S-SO 2,9 C 5,9 C 0,0 km/h
15.11.2018 16:00 5,7 C 81 % 1023,1 hPa 0,0 l/m 0,0 km/h W-SW 2,7 C 5,7 C 0,0 km/h
15.11.2018 17:00 5,5 C 80 % 1023,1 hPa 0,0 l/m 0,0 km/h W-SW 2,3 C 5,5 C 0,0 km/h
15.11.2018 18:00 5,3 C 79 % 1023,4 hPa 0,0 l/m 0,0 km/h W-SW 2,0 C 5,3 C 0,0 km/h
15.11.2018 19:00 5,3 C 78 % 1023,6 hPa 0,0 l/m 0,0 km/h S 1,8 C 5,3 C 0,0 km/h
15.11.2018 20:00 5,2 C 77 % 1023,3 hPa 0,0 l/m 0,0 km/h S 1,5 C 5,2 C 0,0 km/h
15.11.2018 21:00 5,1 C 77 % 1023,5 hPa 0,0 l/m 0,0 km/h S 1,4 C 5,1 C 0,0 km/h
15.11.2018 22:00 5,0 C 77 % 1023,3 hPa 0,0 l/m 0,0 km/h S 1,3 C 5,0 C 0,0 km/h
15.11.2018 23:00 4,9 C 77 % 1023,7 hPa 0,0 l/m 0,0 km/h S 1,2 C 4,9 C 0,0 km/h
16.11.2018 00:00 4,9 C 78 % 1023,6 hPa 0,0 l/m 0,0 km/h S 1,4 C 4,9 C 0,0 km/h
16.11.2018 01:00 4,7 C 78 % 1023,7 hPa 0,0 l/m 3,9 km/h S 1,2 C 4,7 C 2,2 km/h
16.11.2018 02:00 4,5 C 78 % 1023,7 hPa 0,0 l/m 0,0 km/h S 1,0 C 4,5 C 0,0 km/h
16.11.2018 03:00 4,5 C 79 % 1023,6 hPa 0,0 l/m 0,0 km/h S 1,2 C 4,5 C 0,0 km/h
16.11.2018 04:00 4,6 C 79 % 1023,5 hPa 0,0 l/m 0,0 km/h S 1,3 C 4,6 C 0,0 km/h
16.11.2018 05:00 4,4 C 80 % 1023,5 hPa 0,0 l/m 0,0 km/h S 1,3 C 4,4 C 0,0 km/h
16.11.2018 06:00 4,3 C 81 % 1023,4 hPa 0,0 l/m 0,0 km/h S 1,3 C 4,3 C 0,0 km/h
16.11.2018 07:00 4,3 C 83 % 1023,8 hPa 0,0 l/m 0,0 km/h SO 1,7 C 4,3 C 0,0 km/h
16.11.2018 08:00 4,4 C 85 % 1024,4 hPa 0,0 l/m 0,0 km/h SO 2,1 C 4,4 C 0,0 km/h
16.11.2018 09:00 4,6 C 85 % 1024,4 hPa 0,0 l/m 0,0 km/h SO 2,3 C 4,6 C 0,0 km/h
16.11.2018 10:00 5,3 C 85 % 1024,7 hPa 0,0 l/m 0,0 km/h N 3,0 C 5,3 C 0,0 km/h
Min-Datum _ 14.11.18 12.11.18 12.11.18 - 12.11.18 - 15.11.18 15.11.18 12.11.18
_ Min-Zeit 06:53 16:53 04:53 - 00:53 - 05:53 10:53 00:53
Minimum _ 2,1 C 62 % 1011,7 hPa - 0,0 km/h - -1,2 C -3,6 C 0,0 km/h
Max-Datum _ 12.11.18 12.11.18 13.11.18 13.11.18 13.11.18 - 12.11.18 12.11.18 13.11.18
_ Max-Zeit 16:53 00:53 18:53 07:53 09:53 - 13:53 15:53 09:53
Maximum _ 19,0 C 85 % 1028,3 hPa 1,6 l/m 24,0 km/h
SO
- 13,3 C 17,5 C 13,3 km/h
SO
Durchschnitt _ 8,0 C 79 % 1022,3 hPa #4,7 l/m 1,8 km/h SO 4,5 C 7,6 C 1,0 km/h
www.sexauwetter.de